createdAt,value
2018-05-04T00:00:16.147Z,0.00
2018-05-04T00:01:16.146Z,0.00
2018-05-04T00:02:16.149Z,0.00
2018-05-04T00:03:16.161Z,0.00
2018-05-04T00:04:16.174Z,0.00
2018-05-04T00:05:16.249Z,0.00
2018-05-04T00:06:16.199Z,0.00
2018-05-04T00:07:16.210Z,0.00
2018-05-04T00:08:16.254Z,0.00
2018-05-04T00:09:16.227Z,0.00
2018-05-04T00:10:16.244Z,0.00
2018-05-04T00:11:16.251Z,0.00
2018-05-04T00:12:16.261Z,0.00
2018-05-04T00:13:16.275Z,0.00
2018-05-04T00:14:16.303Z,0.00
2018-05-04T00:15:16.297Z,0.00
2018-05-04T00:16:16.306Z,0.00
2018-05-04T00:17:16.317Z,0.00
2018-05-04T00:18:16.348Z,0.00
2018-05-04T00:19:16.343Z,0.00
2018-05-04T00:20:16.356Z,0.00
2018-05-04T00:21:16.395Z,0.00
2018-05-04T00:22:16.376Z,0.00
2018-05-04T00:23:16.411Z,0.00
2018-05-04T00:24:16.394Z,0.00
2018-05-04T00:25:16.408Z,0.00
2018-05-04T00:26:16.418Z,0.00
2018-05-04T00:27:16.429Z,0.00
2018-05-04T00:28:16.446Z,0.00
2018-05-04T00:29:16.458Z,0.00
2018-05-04T00:30:16.469Z,0.00
2018-05-04T00:31:16.475Z,0.00
2018-05-04T00:32:16.486Z,0.00
2018-05-04T00:33:16.499Z,0.00
2018-05-04T00:34:16.507Z,0.00
2018-05-04T00:35:16.519Z,0.00
2018-05-04T00:36:16.545Z,0.00
2018-05-04T00:37:16.544Z,0.00
2018-05-04T00:38:16.556Z,0.00
2018-05-04T00:39:16.581Z,0.00
2018-05-04T00:40:16.579Z,0.00
2018-05-04T00:41:16.582Z,0.00
2018-05-04T00:42:16.596Z,0.00
2018-05-04T00:43:16.606Z,0.00
2018-05-04T00:44:16.627Z,0.00
2018-05-04T00:45:16.635Z,0.00
2018-05-04T00:46:16.645Z,0.00
2018-05-04T00:47:16.650Z,0.00
2018-05-04T00:48:16.705Z,0.00
2018-05-04T00:49:16.677Z,0.00
2018-05-04T00:50:16.689Z,0.00
2018-05-04T00:51:16.730Z,0.00
2018-05-04T00:52:16.713Z,0.00
2018-05-04T00:53:16.735Z,0.00
2018-05-04T00:54:16.728Z,0.00
2018-05-04T00:55:16.750Z,0.00
2018-05-04T00:56:16.750Z,0.00
2018-05-04T00:57:16.769Z,0.00
2018-05-04T00:58:16.775Z,0.00
2018-05-04T00:59:16.781Z,0.00
2018-05-04T01:00:16.794Z,0.00
2018-05-04T01:01:16.806Z,0.00
2018-05-04T01:02:16.845Z,0.00
2018-05-04T01:03:16.829Z,0.00
2018-05-04T01:04:16.839Z,0.00
2018-05-04T01:05:16.848Z,0.00
2018-05-04T01:06:16.889Z,0.00
2018-05-04T01:07:16.870Z,0.00
2018-05-04T01:08:16.883Z,0.00
2018-05-04T01:09:16.895Z,0.00
2018-05-04T01:10:16.902Z,0.00
2018-05-04T01:11:16.914Z,0.00
2018-05-04T01:12:16.958Z,0.00
2018-05-04T01:13:16.937Z,0.00
2018-05-04T01:14:16.952Z,0.00
2018-05-04T01:15:16.966Z,0.00
2018-05-04T01:16:16.971Z,0.00
2018-05-04T01:17:17.002Z,0.00
2018-05-04T01:18:17.029Z,0.00
2018-05-04T01:19:17.010Z,0.00
2018-05-04T01:20:17.014Z,0.00
2018-05-04T01:21:17.031Z,0.00
2018-05-04T01:22:17.033Z,0.00
2018-05-04T01:23:17.050Z,0.00
2018-05-04T01:24:17.054Z,0.00
2018-05-04T01:25:17.112Z,0.00
2018-05-04T01:26:17.084Z,0.00
2018-05-04T01:27:17.090Z,0.00
2018-05-04T01:28:17.103Z,0.00
2018-05-04T01:29:17.131Z,0.00
2018-05-04T01:30:17.139Z,0.00
2018-05-04T01:31:17.135Z,0.00
2018-05-04T01:32:17.147Z,0.00
2018-05-04T01:33:17.157Z,0.00
2018-05-04T01:34:17.175Z,0.00
2018-05-04T01:35:17.181Z,0.00
2018-05-04T01:36:17.195Z,0.00
2018-05-04T01:37:17.202Z,0.00
2018-05-04T01:38:17.212Z,0.00
2018-05-04T01:39:17.223Z,0.00
2018-05-04T01:40:17.236Z,0.00
2018-05-04T01:41:17.260Z,0.00
2018-05-04T01:42:17.256Z,0.00
2018-05-04T01:43:17.266Z,0.00
2018-05-04T01:44:17.291Z,0.00
2018-05-04T01:45:17.290Z,0.00
2018-05-04T01:46:17.301Z,0.00
2018-05-04T01:47:17.311Z,0.00
2018-05-04T01:48:17.321Z,0.00
2018-05-04T01:49:17.357Z,0.00
2018-05-04T01:50:18.935Z,0.00
2018-05-04T01:51:17.353Z,0.00
2018-05-04T01:52:17.367Z,0.00
2018-05-04T01:53:17.381Z,0.00
2018-05-04T01:54:17.388Z,0.00
2018-05-04T01:55:17.411Z,0.00
2018-05-04T01:56:17.406Z,0.00
2018-05-04T01:57:17.429Z,0.00
2018-05-04T01:58:17.430Z,0.00
2018-05-04T01:59:17.451Z,0.00
2018-05-04T02:00:17.450Z,0.00
2018-05-04T02:01:17.463Z,0.00
2018-05-04T02:02:17.476Z,0.00
2018-05-04T02:03:17.495Z,0.00
2018-05-04T02:04:17.526Z,0.00
2018-05-04T02:05:17.508Z,0.00
2018-05-04T02:06:17.519Z,0.00
2018-05-04T02:07:17.527Z,0.00
2018-05-04T02:08:17.539Z,0.00
2018-05-04T02:09:17.561Z,0.00
2018-05-04T02:10:17.565Z,0.00
2018-05-04T02:11:17.602Z,0.00
2018-05-04T02:12:17.582Z,0.00
2018-05-04T02:13:17.595Z,0.00
2018-05-04T02:14:17.606Z,0.00
2018-05-04T02:15:17.618Z,0.00
2018-05-04T02:16:17.640Z,0.00
2018-05-04T02:17:17.635Z,0.00
2018-05-04T02:18:17.650Z,0.00
2018-05-04T02:19:17.660Z,0.00
2018-05-04T02:20:17.701Z,0.00
2018-05-04T02:21:17.685Z,0.00
2018-05-04T02:22:17.694Z,0.00
2018-05-04T02:23:17.713Z,0.00
2018-05-04T02:24:17.715Z,0.00
2018-05-04T02:25:17.726Z,0.00
2018-05-04T02:26:17.737Z,0.00
2018-05-04T02:27:17.763Z,0.00
2018-05-04T02:28:17.759Z,0.00
2018-05-04T02:29:17.770Z,0.00
2018-05-04T02:30:17.781Z,0.00
2018-05-04T02:31:17.798Z,0.00
2018-05-04T02:32:17.801Z,0.00
2018-05-04T02:33:17.813Z,0.00
2018-05-04T02:34:17.820Z,0.00
2018-05-04T02:35:17.835Z,0.00
2018-05-04T02:36:17.843Z,0.00
2018-05-04T02:37:17.859Z,0.00
2018-05-04T02:38:17.871Z,0.00
2018-05-04T02:39:17.879Z,0.00
2018-05-04T02:40:17.886Z,0.00
2018-05-04T02:41:17.912Z,0.00
2018-05-04T02:42:17.915Z,0.00
2018-05-04T02:43:17.955Z,0.00
2018-05-04T02:44:17.962Z,0.00
2018-05-04T02:45:17.946Z,0.00
2018-05-04T02:46:26.046Z,0.00
2018-05-04T02:48:22.510Z,0.00
2018-05-04T02:49:22.704Z,0.00
2018-05-04T02:51:27.478Z,0.00
2018-05-04T02:52:27.349Z,0.00
2018-05-04T02:54:31.903Z,0.00
2018-05-04T02:55:31.569Z,0.00
2018-05-04T02:57:36.271Z,0.00
2018-05-04T02:58:36.396Z,0.00
2018-05-04T03:00:41.033Z,0.00
2018-05-04T03:01:40.588Z,0.00
2018-05-04T03:03:45.335Z,0.00
2018-05-04T03:04:45.459Z,0.00
2018-05-04T03:06:49.780Z,0.00
2018-05-04T03:07:50.127Z,0.00
2018-05-04T03:09:43.441Z,0.00
2018-05-04T03:10:43.667Z,0.00
2018-05-04T03:12:48.154Z,0.00
2018-05-04T03:13:47.750Z,0.00
2018-05-04T03:15:52.531Z,0.00
2018-05-04T03:16:52.676Z,0.00
2018-05-04T03:18:57.223Z,0.00
2018-05-04T03:19:56.782Z,0.00
2018-05-04T03:22:02.328Z,0.00
2018-05-04T03:23:02.726Z,0.00
2018-05-04T03:25:07.814Z,0.00
2018-05-04T03:26:07.844Z,0.00
2018-05-04T03:28:12.714Z,0.00
2018-05-04T03:29:12.304Z,0.00
2018-05-04T03:31:18.317Z,0.00
2018-05-04T03:32:17.812Z,0.00
2018-05-04T03:33:17.951Z,0.00
2018-05-04T03:34:17.853Z,0.00
2018-05-04T03:35:17.920Z,0.00
2018-05-04T03:36:17.927Z,0.00
2018-05-04T03:37:17.868Z,0.00
2018-05-04T03:38:17.905Z,0.00
2018-05-04T03:39:17.886Z,0.00
2018-05-04T03:40:17.929Z,0.00
2018-05-04T03:41:17.915Z,0.00
2018-05-04T03:42:17.919Z,0.00
2018-05-04T03:43:17.932Z,0.00
2018-05-04T03:44:17.942Z,0.00
2018-05-04T03:45:17.957Z,0.00
2018-05-04T03:46:17.962Z,0.00
2018-05-04T03:47:17.971Z,0.00
2018-05-04T03:48:17.991Z,0.00
2018-05-04T03:49:18.002Z,0.00
2018-05-04T03:50:18.011Z,0.00
2018-05-04T03:51:18.015Z,0.00
2018-05-04T03:52:18.029Z,0.00
2018-05-04T03:53:18.037Z,0.00
2018-05-04T03:54:18.049Z,0.00
2018-05-04T03:55:18.054Z,5.63
2018-05-04T03:56:18.067Z,5.63
2018-05-04T03:57:18.091Z,5.63
2018-05-04T03:58:18.087Z,5.63
2018-05-04T03:59:18.104Z,5.63
2018-05-04T04:00:18.109Z,5.63
2018-05-04T04:01:18.157Z,5.63
2018-05-04T04:02:18.131Z,5.63
2018-05-04T04:03:18.141Z,5.63
2018-05-04T04:04:18.154Z,5.63
2018-05-04T04:05:18.163Z,11.25
2018-05-04T04:06:18.176Z,11.25
2018-05-04T04:07:18.183Z,11.25
2018-05-04T04:08:18.213Z,11.25
2018-05-04T04:09:18.206Z,11.25
2018-05-04T04:10:18.291Z,11.25
2018-05-04T04:11:18.227Z,11.25
2018-05-04T04:12:18.244Z,16.88
2018-05-04T04:13:18.247Z,16.88
2018-05-04T04:14:18.269Z,16.88
2018-05-04T04:15:18.273Z,16.88
2018-05-04T04:16:18.279Z,16.88
2018-05-04T04:17:18.315Z,22.50
2018-05-04T04:18:18.380Z,22.50
2018-05-04T04:19:18.339Z,22.50
2018-05-04T04:20:18.394Z,22.50
2018-05-04T04:21:18.341Z,22.50
2018-05-04T04:22:18.370Z,22.50
2018-05-04T04:23:18.355Z,28.13
2018-05-04T04:24:18.400Z,28.13
2018-05-04T04:25:18.375Z,28.13
2018-05-04T04:26:18.384Z,28.13
2018-05-04T04:27:18.392Z,28.13
2018-05-04T04:28:18.499Z,28.13
2018-05-04T04:29:18.456Z,33.75
2018-05-04T04:30:18.423Z,33.75
2018-05-04T04:31:18.440Z,33.75
2018-05-04T04:32:18.460Z,33.75
2018-05-04T04:33:18.462Z,33.75
2018-05-04T04:34:18.463Z,39.38
2018-05-04T04:35:18.472Z,39.38
2018-05-04T04:36:18.487Z,39.38
2018-05-04T04:37:18.498Z,39.38
2018-05-04T04:38:18.536Z,45.00
2018-05-04T04:39:18.521Z,45.00
2018-05-04T04:40:18.531Z,45.00
2018-05-04T04:41:18.622Z,45.00
2018-05-04T04:42:18.547Z,45.00
2018-05-04T04:43:18.573Z,45.00
2018-05-04T04:44:18.571Z,45.00
2018-05-04T04:45:18.583Z,50.63
2018-05-04T04:46:18.639Z,50.63
2018-05-04T04:47:18.598Z,50.63
2018-05-04T04:48:18.615Z,50.63
2018-05-04T04:49:18.623Z,50.63
2018-05-04T04:50:18.642Z,50.63
2018-05-04T04:51:18.646Z,50.63
2018-05-04T04:52:18.781Z,56.25
2018-05-04T04:53:18.680Z,56.25
2018-05-04T04:54:18.697Z,56.25
2018-05-04T04:55:18.684Z,56.25
2018-05-04T04:56:18.707Z,61.88
2018-05-04T04:57:18.713Z,61.88
2018-05-04T04:58:18.711Z,61.88
2018-05-04T04:59:18.725Z,61.88
2018-05-04T05:00:18.742Z,61.88
2018-05-04T05:01:18.756Z,67.50
2018-05-04T05:02:18.754Z,67.50
2018-05-04T05:03:18.763Z,67.50
2018-05-04T05:04:18.777Z,67.50
2018-05-04T05:05:18.787Z,67.50
2018-05-04T05:06:18.792Z,67.50
2018-05-04T05:07:18.805Z,67.50
2018-05-04T05:08:18.863Z,67.50
2018-05-04T05:09:18.830Z,67.50
2018-05-04T05:10:18.837Z,67.50
2018-05-04T05:11:18.870Z,67.50
2018-05-04T05:12:18.868Z,67.50
2018-05-04T05:13:18.949Z,67.50
2018-05-04T05:14:18.930Z,67.50
2018-05-04T05:15:28.971Z,73.13
2018-05-04T05:17:24.546Z,90.00
2018-05-04T05:18:33.189Z,84.38
2018-05-04T05:20:37.626Z,78.75
2018-05-04T05:21:36.779Z,78.75
2018-05-04T05:23:45.969Z,73.13
2018-05-04T05:24:33.282Z,73.13
2018-05-04T05:26:37.837Z,78.75
2018-05-04T05:27:37.917Z,78.75
2018-05-04T05:29:31.144Z,78.75
2018-05-04T05:30:39.172Z,84.38
2018-05-04T05:32:35.713Z,90.00
2018-05-04T05:33:35.986Z,90.00
2018-05-04T05:35:42.485Z,90.00
2018-05-04T05:36:50.613Z,95.63
2018-05-04T05:38:47.231Z,95.63
2018-05-04T05:39:55.794Z,101.25
2018-05-04T05:41:52.577Z,101.25
2018-05-04T05:42:52.452Z,106.88
2018-05-04T05:44:57.169Z,112.50
2018-05-04T05:46:06.160Z,112.50
2018-05-04T05:48:01.531Z,123.75
2018-05-04T05:49:10.049Z,123.75
2018-05-04T05:51:06.852Z,129.38
2018-05-04T05:52:05.726Z,129.38
2018-05-04T05:54:11.732Z,123.75
2018-05-04T05:55:13.091Z,129.38
2018-05-04T05:57:16.315Z,135.00
2018-05-04T05:58:15.673Z,135.00
2018-05-04T06:00:11.955Z,135.00
2018-05-04T06:01:20.967Z,129.38
2018-05-04T06:03:17.462Z,123.75
2018-05-04T06:04:17.511Z,129.38
2018-05-04T06:06:22.021Z,129.38
2018-05-04T06:07:21.986Z,123.75
2018-05-04T06:09:15.423Z,129.38
2018-05-04T06:10:15.606Z,129.38
2018-05-04T06:11:15.525Z,129.38
2018-05-04T06:12:15.699Z,129.38
2018-05-04T06:13:15.578Z,129.38
2018-05-04T06:14:15.469Z,129.38
2018-05-04T06:15:15.537Z,129.38
2018-05-04T06:16:15.511Z,129.38
2018-05-04T06:17:15.493Z,123.75
2018-05-04T06:18:15.542Z,123.75
2018-05-04T06:19:15.516Z,118.13
2018-05-04T06:20:15.721Z,129.38
2018-05-04T06:21:15.556Z,151.88
2018-05-04T06:22:15.644Z,157.50
2018-05-04T06:23:15.563Z,151.88
2018-05-04T06:24:15.563Z,157.50
2018-05-04T06:25:15.806Z,185.63
2018-05-04T06:26:25.839Z,202.50
2018-05-04T06:28:20.612Z,185.63
2018-05-04T06:29:22.125Z,180.00
2018-05-04T06:31:26.706Z,180.00
2018-05-04T06:32:27.042Z,174.38
2018-05-04T06:34:32.265Z,185.63
2018-05-04T06:35:32.345Z,163.13
2018-05-04T06:36:32.679Z,157.50
2018-05-04T06:37:32.485Z,174.38
2018-05-04T06:38:32.249Z,168.75
2018-05-04T06:39:32.324Z,174.38
2018-05-04T06:40:32.278Z,180.00
2018-05-04T06:41:32.281Z,180.00
2018-05-04T06:42:32.291Z,168.75
2018-05-04T06:43:32.300Z,180.00
2018-05-04T06:44:32.315Z,180.00
2018-05-04T06:45:32.322Z,168.75
2018-05-04T06:46:32.336Z,168.75
2018-05-04T06:47:32.368Z,157.50
2018-05-04T06:48:32.359Z,151.88
2018-05-04T06:49:32.372Z,140.63
2018-05-04T06:50:32.382Z,140.63
2018-05-04T06:51:32.393Z,140.63
2018-05-04T06:52:32.401Z,157.50
2018-05-04T06:53:32.410Z,185.63
2018-05-04T06:54:32.449Z,180.00
2018-05-04T06:55:32.446Z,185.63
2018-05-04T06:56:32.451Z,208.13
2018-05-04T06:57:32.502Z,230.63
2018-05-04T06:58:32.466Z,236.25
2018-05-04T06:59:32.478Z,241.88
2018-05-04T07:00:32.506Z,241.88
2018-05-04T07:01:32.533Z,241.88
2018-05-04T07:02:32.508Z,247.50
2018-05-04T07:03:32.522Z,202.50
2018-05-04T07:04:32.605Z,196.88
2018-05-04T07:05:32.545Z,208.13
2018-05-04T07:06:32.648Z,196.88
2018-05-04T07:07:41.697Z,174.38
2018-05-04T07:09:34.181Z,174.38
2018-05-04T07:10:26.426Z,219.38
2018-05-04T07:12:30.610Z,202.50
2018-05-04T07:13:30.802Z,185.63
2018-05-04T07:15:35.120Z,185.63
2018-05-04T07:16:35.436Z,196.88
2018-05-04T07:18:28.994Z,168.75
2018-05-04T07:19:28.591Z,185.63
2018-05-04T07:20:28.794Z,180.00
2018-05-04T07:21:29.028Z,180.00
2018-05-04T07:22:28.824Z,174.38
2018-05-04T07:23:28.855Z,163.13
2018-05-04T07:24:28.649Z,168.75
2018-05-04T07:25:28.668Z,168.75
2018-05-04T07:26:28.674Z,180.00
2018-05-04T07:27:28.697Z,174.38
2018-05-04T07:28:28.698Z,174.38
2018-05-04T07:29:28.705Z,174.38
2018-05-04T07:30:28.717Z,174.38
2018-05-04T07:31:28.725Z,180.00
2018-05-04T07:32:28.741Z,180.00
2018-05-04T07:33:28.756Z,180.00
2018-05-04T07:34:28.767Z,185.63
2018-05-04T07:35:28.771Z,191.25
2018-05-04T07:36:28.779Z,191.25
2018-05-04T07:37:28.823Z,191.25
2018-05-04T07:38:28.804Z,191.25
2018-05-04T07:39:28.816Z,191.25
2018-05-04T07:40:28.825Z,213.75
2018-05-04T07:41:28.877Z,208.13
2018-05-04T07:42:28.852Z,213.75
2018-05-04T07:43:28.862Z,196.88
2018-05-04T07:44:28.873Z,202.50
2018-05-04T07:45:28.890Z,196.88
2018-05-04T07:46:28.899Z,196.88
2018-05-04T07:47:28.926Z,185.63
2018-05-04T07:48:28.949Z,191.25
2018-05-04T07:49:28.929Z,185.63
2018-05-04T07:50:28.961Z,196.88
2018-05-04T07:51:28.978Z,230.63
2018-05-04T07:52:28.963Z,208.13
2018-05-04T07:53:28.976Z,208.13
2018-05-04T07:54:28.987Z,196.88
2018-05-04T07:55:29.003Z,196.88
2018-05-04T07:56:29.011Z,196.88
2018-05-04T07:57:29.020Z,191.25
2018-05-04T07:58:29.034Z,191.25
2018-05-04T07:59:29.044Z,191.25
2018-05-04T08:00:29.068Z,191.25
2018-05-04T08:01:29.076Z,191.25
2018-05-04T08:02:29.083Z,196.88
2018-05-04T08:03:29.091Z,196.88
2018-05-04T08:04:29.104Z,196.88
2018-05-04T08:05:29.114Z,202.50
2018-05-04T08:06:29.128Z,202.50
2018-05-04T08:07:29.136Z,202.50
2018-05-04T08:08:29.213Z,208.13
2018-05-04T08:09:29.159Z,202.50
2018-05-04T08:10:29.171Z,208.13
2018-05-04T08:11:29.214Z,213.75
2018-05-04T08:12:29.200Z,213.75
2018-05-04T08:13:29.206Z,213.75
2018-05-04T08:14:29.221Z,213.75
2018-05-04T08:15:29.230Z,219.38
2018-05-04T08:16:29.251Z,219.38
2018-05-04T08:17:29.253Z,219.38
2018-05-04T08:18:29.281Z,247.50
2018-05-04T08:19:29.286Z,247.50
2018-05-04T08:20:29.289Z,253.13
2018-05-04T08:21:29.304Z,281.25
2018-05-04T08:22:29.337Z,247.50
2018-05-04T08:23:29.353Z,236.25
2018-05-04T08:24:29.335Z,230.63
2018-05-04T08:25:29.345Z,225.00
2018-05-04T08:26:29.368Z,225.00
2018-05-04T08:27:29.430Z,230.63
2018-05-04T08:28:29.383Z,230.63
2018-05-04T08:29:29.397Z,225.00
2018-05-04T08:30:29.437Z,236.25
2018-05-04T08:31:29.447Z,241.88
2018-05-04T08:32:29.433Z,236.25
2018-05-04T08:33:29.441Z,241.88
2018-05-04T08:34:29.469Z,236.25
2018-05-04T08:35:29.559Z,241.88
2018-05-04T08:36:29.476Z,236.25
2018-05-04T08:37:29.488Z,219.38
2018-05-04T08:38:29.500Z,230.63
2018-05-04T08:39:29.517Z,241.88
2018-05-04T08:40:29.528Z,247.50
2018-05-04T08:41:29.535Z,258.75
2018-05-04T08:42:29.562Z,247.50
2018-05-04T08:43:29.562Z,258.75
2018-05-04T08:44:29.579Z,320.63
2018-05-04T08:45:29.585Z,371.25
2018-05-04T08:46:29.596Z,410.63
2018-05-04T08:47:29.611Z,416.25
2018-05-04T08:48:29.618Z,433.13
2018-05-04T08:49:29.635Z,438.75
2018-05-04T08:50:29.647Z,444.38
2018-05-04T08:51:29.661Z,427.50
2018-05-04T08:52:29.671Z,433.13
2018-05-04T08:53:29.681Z,450.00
2018-05-04T08:54:29.695Z,455.63
2018-05-04T08:55:29.708Z,478.13
2018-05-04T08:56:29.719Z,483.75
2018-05-04T08:57:29.743Z,478.13
2018-05-04T08:58:29.744Z,472.50
2018-05-04T08:59:29.762Z,483.75
2018-05-04T09:00:29.768Z,489.38
2018-05-04T09:01:29.793Z,489.38
2018-05-04T09:02:29.799Z,483.75
2018-05-04T09:03:29.833Z,483.75
2018-05-04T09:04:29.819Z,489.38
2018-05-04T09:05:30.129Z,495.00
2018-05-04T09:06:29.845Z,489.38
2018-05-04T09:07:29.859Z,489.38
2018-05-04T09:08:29.882Z,478.13
2018-05-04T09:09:29.881Z,455.63
2018-05-04T09:10:29.894Z,478.13
2018-05-04T09:11:29.950Z,483.75
2018-05-04T09:12:29.935Z,455.63
2018-05-04T09:13:29.942Z,455.63
2018-05-04T09:14:29.950Z,438.75
2018-05-04T09:15:29.989Z,438.75
2018-05-04T09:16:29.977Z,416.25
2018-05-04T09:17:29.994Z,405.00
2018-05-04T09:18:30.002Z,382.50
2018-05-04T09:19:30.021Z,388.13
2018-05-04T09:20:30.030Z,399.38
2018-05-04T09:21:30.046Z,376.88
2018-05-04T09:22:30.060Z,348.75
2018-05-04T09:23:30.072Z,371.25
2018-05-04T09:24:30.086Z,371.25
2018-05-04T09:25:30.098Z,343.13
2018-05-04T09:26:30.108Z,376.88
2018-05-04T09:27:30.128Z,450.00
2018-05-04T09:28:30.144Z,438.75
2018-05-04T09:29:30.151Z,444.38
2018-05-04T09:30:30.182Z,444.38
2018-05-04T09:31:30.183Z,444.38
2018-05-04T09:32:30.189Z,461.25
2018-05-04T09:33:30.203Z,483.75
2018-05-04T09:34:30.216Z,427.50
2018-05-04T09:35:30.234Z,371.25
2018-05-04T09:36:30.267Z,365.63
2018-05-04T09:37:30.279Z,388.13
2018-05-04T09:38:30.271Z,388.13
2018-05-04T09:39:30.290Z,405.00
2018-05-04T09:40:30.298Z,376.88
2018-05-04T09:41:30.341Z,365.63
2018-05-04T09:42:30.324Z,371.25
2018-05-04T09:43:30.376Z,393.75
2018-05-04T09:44:30.351Z,455.63
2018-05-04T09:45:30.364Z,495.00
2018-05-04T09:46:30.387Z,545.63
2018-05-04T09:47:30.392Z,573.75
2018-05-04T09:48:30.408Z,545.63
2018-05-04T09:49:30.419Z,545.63
2018-05-04T09:50:30.434Z,528.75
2018-05-04T09:51:30.452Z,601.88
2018-05-04T09:52:30.470Z,573.75
2018-05-04T09:53:30.838Z,534.38
2018-05-04T09:54:30.487Z,511.88
2018-05-04T09:55:30.508Z,461.25
2018-05-04T09:56:30.513Z,444.38
2018-05-04T09:57:30.527Z,461.25
2018-05-04T09:58:30.574Z,511.88
2018-05-04T09:59:30.561Z,568.13
2018-05-04T10:00:30.573Z,635.63
2018-05-04T10:01:30.588Z,646.88
2018-05-04T10:02:30.631Z,646.88
2018-05-04T10:03:30.652Z,635.63
2018-05-04T10:04:30.626Z,641.25
2018-05-04T10:05:30.642Z,675.00
2018-05-04T10:06:30.688Z,714.38
2018-05-04T10:07:30.667Z,720.00
2018-05-04T10:08:30.776Z,725.63
2018-05-04T10:09:30.696Z,736.88
2018-05-04T10:10:30.715Z,675.00
2018-05-04T10:11:30.755Z,686.25
2018-05-04T10:12:30.742Z,697.50
2018-05-04T10:13:30.757Z,686.25
2018-05-04T10:14:30.769Z,691.88
2018-05-04T10:15:30.784Z,725.63
2018-05-04T10:16:30.806Z,720.00
2018-05-04T10:17:30.812Z,697.50
2018-05-04T10:18:30.829Z,675.00
2018-05-04T10:19:30.843Z,691.88
2018-05-04T10:20:30.863Z,697.50
2018-05-04T10:21:30.871Z,675.00
2018-05-04T10:22:30.886Z,669.38
2018-05-04T10:23:30.932Z,691.88
2018-05-04T10:24:30.974Z,708.75
2018-05-04T10:25:30.931Z,770.63
2018-05-04T10:26:30.952Z,708.75
2018-05-04T10:27:30.961Z,686.25
2018-05-04T10:28:30.978Z,618.75
2018-05-04T10:29:30.995Z,596.25
2018-05-04T10:30:31.050Z,641.25
2018-05-04T10:31:31.185Z,613.13
2018-05-04T10:32:31.037Z,618.75
2018-05-04T10:33:31.111Z,607.50
2018-05-04T10:34:31.067Z,618.75
2018-05-04T10:35:31.166Z,646.88
2018-05-04T10:36:31.120Z,658.13
2018-05-04T10:37:31.111Z,736.88
2018-05-04T10:38:31.208Z,703.13
2018-05-04T10:39:31.143Z,641.25
2018-05-04T10:40:31.162Z,613.13
2018-05-04T10:41:31.180Z,607.50
2018-05-04T10:42:31.192Z,630.00
2018-05-04T10:43:31.208Z,742.50
2018-05-04T10:44:31.220Z,697.50
2018-05-04T10:45:31.239Z,697.50
2018-05-04T10:46:31.250Z,635.63
2018-05-04T10:47:31.282Z,658.13
2018-05-04T10:48:31.283Z,635.63
2018-05-04T10:49:31.310Z,601.88
2018-05-04T10:50:31.317Z,585.00
2018-05-04T10:51:31.333Z,568.13
2018-05-04T10:52:31.345Z,562.50
2018-05-04T10:53:31.364Z,585.00
2018-05-04T10:54:31.382Z,624.38
2018-05-04T10:55:31.394Z,641.25
2018-05-04T10:56:31.405Z,635.63
2018-05-04T10:57:31.427Z,624.38
2018-05-04T10:58:31.440Z,607.50
2018-05-04T10:59:31.451Z,641.25
2018-05-04T11:00:31.496Z,618.75
2018-05-04T11:01:31.483Z,613.13
2018-05-04T11:02:31.496Z,697.50
2018-05-04T11:03:31.510Z,500.63
2018-05-04T11:04:31.527Z,815.63
2018-05-04T11:05:31.544Z,686.25
2018-05-04T11:06:31.560Z,528.75
2018-05-04T11:07:31.570Z,540.00
2018-05-04T11:08:32.808Z,562.50
2018-05-04T11:09:31.602Z,500.63
2018-05-04T11:10:31.615Z,450.00
2018-05-04T11:11:31.634Z,455.63
2018-05-04T11:12:32.585Z,551.25
2018-05-04T11:13:31.675Z,540.00
2018-05-04T11:14:31.678Z,511.88
2018-05-04T11:15:31.801Z,517.50
2018-05-04T11:16:31.712Z,478.13
2018-05-04T11:17:31.721Z,410.63
2018-05-04T11:18:31.739Z,410.63
2018-05-04T11:19:31.870Z,421.88
2018-05-04T11:20:31.769Z,343.13
2018-05-04T11:21:31.784Z,281.25
2018-05-04T11:22:31.811Z,281.25
2018-05-04T11:23:31.941Z,247.50
2018-05-04T11:24:31.833Z,236.25
2018-05-04T11:25:31.909Z,213.75
2018-05-04T11:26:31.862Z,202.50
2018-05-04T11:27:31.876Z,202.50
2018-05-04T11:28:31.928Z,247.50
2018-05-04T11:29:31.911Z,241.88
2018-05-04T11:30:31.920Z,253.13
2018-05-04T11:31:31.935Z,253.13
2018-05-04T11:32:31.963Z,225.00
2018-05-04T11:33:31.964Z,213.75
2018-05-04T11:34:31.978Z,219.38
2018-05-04T11:35:32.006Z,253.13
2018-05-04T11:36:32.012Z,270.00
2018-05-04T11:37:32.033Z,303.75
2018-05-04T11:38:32.039Z,320.63
2018-05-04T11:39:32.051Z,326.25
2018-05-04T11:40:32.070Z,331.88
2018-05-04T11:41:32.093Z,337.50
2018-05-04T11:42:32.122Z,331.88
2018-05-04T11:43:32.144Z,348.75
2018-05-04T11:44:32.129Z,376.88
2018-05-04T11:45:32.140Z,382.50
2018-05-04T11:46:32.153Z,405.00
2018-05-04T11:47:32.179Z,405.00
2018-05-04T11:48:32.196Z,393.75
2018-05-04T11:49:33.013Z,438.75
2018-05-04T11:50:40.055Z,500.63
2018-05-04T11:52:36.776Z,500.63
2018-05-04T11:53:36.861Z,500.63
2018-05-04T11:54:37.111Z,534.38
2018-05-04T11:55:37.001Z,545.63
2018-05-04T11:56:44.750Z,573.75
2018-05-04T11:58:41.529Z,579.38
2018-05-04T11:59:41.693Z,596.25
2018-05-04T12:00:41.600Z,607.50
2018-05-04T12:01:41.478Z,669.38
2018-05-04T12:02:51.046Z,601.88
2018-05-04T12:04:46.413Z,556.88
2018-05-04T12:05:46.263Z,635.63
2018-05-04T12:06:46.342Z,607.50
2018-05-04T12:07:46.370Z,607.50
2018-05-04T12:08:46.265Z,540.00
2018-05-04T12:09:46.194Z,500.63
2018-05-04T12:10:46.306Z,624.38
2018-05-04T12:11:46.232Z,691.88
2018-05-04T12:12:46.226Z,759.38
2018-05-04T12:13:46.242Z,686.25
2018-05-04T12:14:46.285Z,601.88
2018-05-04T12:15:46.268Z,810.00
2018-05-04T12:16:46.329Z,810.00
2018-05-04T12:17:46.301Z,725.63
2018-05-04T12:18:46.316Z,697.50
2018-05-04T12:19:46.354Z,990.00
2018-05-04T12:20:46.392Z,832.50
2018-05-04T12:21:46.372Z,765.00
2018-05-04T12:22:46.445Z,613.13
2018-05-04T12:23:46.398Z,545.63
2018-05-04T12:24:46.411Z,793.13
2018-05-04T12:25:46.430Z,815.63
2018-05-04T12:26:46.457Z,894.38
2018-05-04T12:27:46.459Z,838.13
2018-05-04T12:28:46.487Z,658.13
2018-05-04T12:29:46.491Z,601.88
2018-05-04T12:30:46.508Z,793.13
2018-05-04T12:31:54.384Z,1040.63
2018-05-04T12:33:52.085Z,759.38
2018-05-04T12:34:52.117Z,1091.25
2018-05-04T12:36:56.619Z,916.88
2018-05-04T12:37:56.686Z,821.25
2018-05-04T12:39:50.218Z,826.88
2018-05-04T12:40:50.434Z,928.13
2018-05-04T12:42:55.769Z,888.75
2018-05-04T12:43:56.016Z,905.63
2018-05-04T12:46:01.329Z,928.13
2018-05-04T12:47:01.554Z,928.13
2018-05-04T12:48:01.614Z,1220.63
2018-05-04T12:49:01.433Z,1468.13
2018-05-04T12:50:01.631Z,1580.63
2018-05-04T12:51:01.433Z,1850.63
2018-05-04T12:52:01.419Z,2958.75
2018-05-04T12:53:01.447Z,2936.25
2018-05-04T12:54:01.453Z,2148.75
2018-05-04T12:55:03.248Z,2683.13
2018-05-04T12:56:01.484Z,2896.88
2018-05-04T12:57:01.501Z,2857.50
2018-05-04T12:58:01.528Z,2930.63
2018-05-04T12:59:01.539Z,1130.63
2018-05-04T13:00:01.686Z,1451.25
2018-05-04T13:01:01.575Z,1203.75
2018-05-04T13:02:01.600Z,2851.88
2018-05-04T13:03:01.621Z,2947.50
2018-05-04T13:04:01.638Z,1473.75
2018-05-04T13:05:01.662Z,2160.00
2018-05-04T13:06:01.707Z,1400.63
2018-05-04T13:07:01.714Z,978.75
2018-05-04T13:08:01.728Z,2548.13
2018-05-04T13:09:02.099Z,2587.50
2018-05-04T13:10:01.803Z,1063.13
2018-05-04T13:11:01.794Z,2576.25
2018-05-04T13:12:01.829Z,2385.00
2018-05-04T13:13:01.837Z,2328.75
2018-05-04T13:14:01.866Z,1378.13
2018-05-04T13:15:01.935Z,2801.25
2018-05-04T13:16:01.903Z,1237.50
2018-05-04T13:17:01.929Z,1552.50
2018-05-04T13:18:01.950Z,534.38
2018-05-04T13:19:01.992Z,680.63
2018-05-04T13:20:02.011Z,1192.50
2018-05-04T13:21:02.024Z,2396.25
2018-05-04T13:22:02.041Z,916.88
2018-05-04T13:23:02.074Z,556.88
2018-05-04T13:24:02.085Z,534.38
2018-05-04T13:25:02.697Z,421.88
2018-05-04T13:26:02.131Z,405.00
2018-05-04T13:27:02.152Z,416.25
2018-05-04T13:28:02.173Z,405.00
2018-05-04T13:29:02.208Z,348.75
2018-05-04T13:30:02.222Z,444.38
2018-05-04T13:31:02.237Z,961.88
2018-05-04T13:32:02.256Z,1001.25
2018-05-04T13:33:02.312Z,646.88
2018-05-04T13:34:02.299Z,798.75
2018-05-04T13:35:02.325Z,2435.63